الصفحة الرئيسية
METAR-TAF:

METAR-TAF

مطار :

مطار جبل طارق

جبل طارق, جبل طارق

دائرة عرض: 36-09N, خط طول: 005-21W, ارتفاع: 5 متر

مراقبة الطقس الحالي

تاريخ ووقت الإصدار 37 دقيقة قبل الساعة 21:50UTC
ريح 24 عقدة من الشرق تتزايد حتى 35 عقدة
درجة الحرارة 15°درجة مئوية
الرطوبة 82%
ضغط 1021 hPa
الرؤية 10 كم أو أكثر
غيوم متفرقة على ارتفاع 1800 قدم
غيوم مفككة على ارتفاع 3500 قدم

METAR: LXGB 232150Z 09024G35KT 9999 SCT018 BKN035 15/12 Q1021 NOSIG

زمن: 23:27 (22:27 UTC)

توقعات

تاريخ ووقت الإصدار 3ساعات و 9 دقيقة قبل الساعة 19:18UTC
التوقعات صالحة من23 الساعة 21 UTC إلى 23 الساعة 24 UTC
ريح 22 عقدة من الشرق تتزايد حتى 35 عقدة
الرؤية 10 كم أو أكثر
غيوم متفرقة على ارتفاع 2000 قدم

TAF: LXGB 231918Z 2321/2324 08022G35KT 9999 SCT020 520002

أرصاد الطقس والتوقعات من أكثر من 4000 مطار (تقارير الطقس للمطار METAR والتنبؤ بالطقس بالمطارTAF).

المحطات المتاحة هي النقط الصفراء والحمراء على الخريطة.

حرك المؤشر فوق النقطة لمعرفة اسم المحطة.

ثم انقر لمعرفة أرصاد وتوقعات الطقس.

لتغيير الخارطة: اضغط على الأزرار الخضراء مع رمز الصليب الأسود للتكبير. على الزر الأخضر مع شرطة للتصغير، أو على الأسهم الخضراء للخرائط المجاورة.


METAR-TAF: